sensor_id;sensor_type;location;lat;lon;timestamp;P1;durP1;ratioP1;P2;durP2;ratioP2
20076;SDS011;12348;42.710;23.378;2022-12-07T00:00:18;24.47;;;11.43;;
20076;SDS011;12348;42.710;23.378;2022-12-07T00:02:46;23.67;;;11.53;;
20076;SDS011;12348;42.710;23.378;2022-12-07T00:05:12;24.00;;;10.97;;
20076;SDS011;12348;42.710;23.378;2022-12-07T00:07:39;27.67;;;10.77;;
20076;SDS011;12348;42.710;23.378;2022-12-07T00:10:08;23.93;;;11.77;;
20076;SDS011;12348;42.710;23.378;2022-12-07T00:12:35;26.33;;;11.20;;
20076;SDS011;12348;42.710;23.378;2022-12-07T00:15:01;19.90;;;9.57;;
20076;SDS011;12348;42.710;23.378;2022-12-07T00:17:29;28.80;;;11.93;;
20076;SDS011;12348;42.710;23.378;2022-12-07T00:19:55;29.60;;;10.83;;
20076;SDS011;12348;42.710;23.378;2022-12-07T00:22:22;23.97;;;11.50;;
20076;SDS011;12348;42.710;23.378;2022-12-07T00:24:49;26.00;;;12.00;;
20076;SDS011;12348;42.710;23.378;2022-12-07T00:27:17;26.83;;;12.70;;
20076;SDS011;12348;42.710;23.378;2022-12-07T00:29:43;32.23;;;11.40;;
20076;SDS011;12348;42.710;23.378;2022-12-07T00:32:10;28.03;;;11.77;;
20076;SDS011;12348;42.710;23.378;2022-12-07T00:34:37;29.63;;;12.27;;
20076;SDS011;12348;42.710;23.378;2022-12-07T00:37:04;28.87;;;12.37;;
20076;SDS011;12348;42.710;23.378;2022-12-07T00:39:31;26.77;;;11.57;;
20076;SDS011;12348;42.710;23.378;2022-12-07T00:41:57;23.47;;;9.33;;
20076;SDS011;12348;42.710;23.378;2022-12-07T00:44:26;28.63;;;11.87;;
20076;SDS011;12348;42.710;23.378;2022-12-07T00:46:53;26.60;;;11.20;;
20076;SDS011;12348;42.710;23.378;2022-12-07T00:49:20;27.93;;;11.67;;
20076;SDS011;12348;42.710;23.378;2022-12-07T00:51:47;26.77;;;10.40;;
20076;SDS011;12348;42.710;23.378;2022-12-07T00:54:15;27.43;;;10.93;;
20076;SDS011;12348;42.710;23.378;2022-12-07T00:56:41;29.67;;;11.37;;
20076;SDS011;12348;42.710;23.378;2022-12-07T00:59:10;24.03;;;11.00;;
20076;SDS011;12348;42.710;23.378;2022-12-07T01:01:41;28.53;;;11.50;;
20076;SDS011;12348;42.710;23.378;2022-12-07T01:04:08;27.40;;;11.93;;
20076;SDS011;12348;42.710;23.378;2022-12-07T01:06:35;28.67;;;13.00;;
20076;SDS011;12348;42.710;23.378;2022-12-07T01:09:02;28.03;;;11.97;;
20076;SDS011;12348;42.710;23.378;2022-12-07T01:11:30;28.20;;;11.50;;
20076;SDS011;12348;42.710;23.378;2022-12-07T01:13:58;34.20;;;12.03;;
20076;SDS011;12348;42.710;23.378;2022-12-07T01:16:26;25.07;;;12.27;;
20076;SDS011;12348;42.710;23.378;2022-12-07T01:18:55;29.80;;;13.23;;
20076;SDS011;12348;42.710;23.378;2022-12-07T01:21:23;31.17;;;13.20;;
20076;SDS011;12348;42.710;23.378;2022-12-07T01:23:51;26.10;;;10.17;;
20076;SDS011;12348;42.710;23.378;2022-12-07T01:26:19;33.80;;;12.47;;
20076;SDS011;12348;42.710;23.378;2022-12-07T01:28:48;28.50;;;13.33;;
20076;SDS011;12348;42.710;23.378;2022-12-07T01:31:17;35.57;;;11.10;;
20076;SDS011;12348;42.710;23.378;2022-12-07T01:33:46;26.03;;;11.53;;
20076;SDS011;12348;42.710;23.378;2022-12-07T01:36:19;31.47;;;10.83;;
20076;SDS011;12348;42.710;23.378;2022-12-07T01:38:47;25.53;;;11.27;;
20076;SDS011;12348;42.710;23.378;2022-12-07T01:41:16;26.17;;;11.37;;
20076;SDS011;12348;42.710;23.378;2022-12-07T01:46:36;24.87;;;12.07;;
20076;SDS011;12348;42.710;23.378;2022-12-07T01:49:03;25.07;;;11.47;;
20076;SDS011;12348;42.710;23.378;2022-12-07T01:51:32;34.73;;;11.97;;
20076;SDS011;12348;42.710;23.378;2022-12-07T01:54:00;30.27;;;12.60;;
20076;SDS011;12348;42.710;23.378;2022-12-07T01:56:28;22.07;;;10.73;;
20076;SDS011;12348;42.710;23.378;2022-12-07T01:58:55;30.03;;;11.67;;
20076;SDS011;12348;42.710;23.378;2022-12-07T02:01:25;28.57;;;12.00;;
20076;SDS011;12348;42.710;23.378;2022-12-07T02:03:51;29.53;;;12.07;;
20076;SDS011;12348;42.710;23.378;2022-12-07T02:06:21;20.93;;;9.90;;
20076;SDS011;12348;42.710;23.378;2022-12-07T02:08:52;23.77;;;11.10;;
20076;SDS011;12348;42.710;23.378;2022-12-07T02:11:19;24.03;;;10.13;;
20076;SDS011;12348;42.710;23.378;2022-12-07T02:13:46;35.97;;;12.60;;
20076;SDS011;12348;42.710;23.378;2022-12-07T02:16:19;26.57;;;10.90;;
20076;SDS011;12348;42.710;23.378;2022-12-07T02:18:59;32.93;;;11.50;;
20076;SDS011;12348;42.710;23.378;2022-12-07T02:21:42;24.60;;;11.17;;
20076;SDS011;12348;42.710;23.378;2022-12-07T02:24:16;27.87;;;12.13;;
20076;SDS011;12348;42.710;23.378;2022-12-07T02:27:12;30.90;;;10.30;;
20076;SDS011;12348;42.710;23.378;2022-12-07T02:30:00;27.00;;;10.57;;
20076;SDS011;12348;42.710;23.378;2022-12-07T02:32:36;29.90;;;14.17;;
20076;SDS011;12348;42.710;23.378;2022-12-07T02:35:11;26.20;;;11.33;;
20076;SDS011;12348;42.710;23.378;2022-12-07T02:37:47;27.47;;;13.43;;
20076;SDS011;12348;42.710;23.378;2022-12-07T02:40:21;23.10;;;10.37;;
20076;SDS011;12348;42.710;23.378;2022-12-07T02:42:53;24.37;;;10.40;;
20076;SDS011;12348;42.710;23.378;2022-12-07T02:45:26;24.93;;;10.97;;
20076;SDS011;12348;42.710;23.378;2022-12-07T02:47:56;27.87;;;11.67;;
20076;SDS011;12348;42.710;23.378;2022-12-07T02:50:25;26.70;;;11.23;;
20076;SDS011;12348;42.710;23.378;2022-12-07T02:52:52;30.00;;;12.87;;
20076;SDS011;12348;42.710;23.378;2022-12-07T02:55:21;18.30;;;10.80;;
20076;SDS011;12348;42.710;23.378;2022-12-07T02:58:03;23.37;;;11.43;;
20076;SDS011;12348;42.710;23.378;2022-12-07T03:00:47;30.07;;;13.20;;
20076;SDS011;12348;42.710;23.378;2022-12-07T03:03:18;25.20;;;11.77;;
20076;SDS011;12348;42.710;23.378;2022-12-07T03:05:49;32.07;;;13.77;;
20076;SDS011;12348;42.710;23.378;2022-12-07T03:08:27;28.97;;;11.13;;
20076;SDS011;12348;42.710;23.378;2022-12-07T03:11:00;26.63;;;12.37;;
20076;SDS011;12348;42.710;23.378;2022-12-07T03:13:32;24.30;;;11.77;;
20076;SDS011;12348;42.710;23.378;2022-12-07T03:16:05;25.67;;;9.90;;
20076;SDS011;12348;42.710;23.378;2022-12-07T03:18:37;27.13;;;11.47;;
20076;SDS011;12348;42.710;23.378;2022-12-07T03:21:08;27.37;;;11.73;;
20076;SDS011;12348;42.710;23.378;2022-12-07T03:23:42;25.60;;;10.83;;
20076;SDS011;12348;42.710;23.378;2022-12-07T03:26:15;28.93;;;10.00;;
20076;SDS011;12348;42.710;23.378;2022-12-07T03:28:47;22.40;;;10.00;;
20076;SDS011;12348;42.710;23.378;2022-12-07T03:31:20;30.17;;;11.67;;
20076;SDS011;12348;42.710;23.378;2022-12-07T03:33:52;27.00;;;11.77;;
20076;SDS011;12348;42.710;23.378;2022-12-07T03:36:28;26.90;;;11.63;;
20076;SDS011;12348;42.710;23.378;2022-12-07T03:39:01;23.07;;;11.47;;
20076;SDS011;12348;42.710;23.378;2022-12-07T03:41:34;23.70;;;11.50;;
20076;SDS011;12348;42.710;23.378;2022-12-07T03:44:04;27.77;;;10.70;;
20076;SDS011;12348;42.710;23.378;2022-12-07T03:46:36;22.90;;;11.97;;
20076;SDS011;12348;42.710;23.378;2022-12-07T03:49:11;34.50;;;12.77;;
20076;SDS011;12348;42.710;23.378;2022-12-07T03:51:44;28.37;;;11.90;;
20076;SDS011;12348;42.710;23.378;2022-12-07T03:54:17;23.00;;;12.70;;
20076;SDS011;12348;42.710;23.378;2022-12-07T03:56:49;25.77;;;11.57;;
20076;SDS011;12348;42.710;23.378;2022-12-07T03:59:17;32.70;;;11.63;;
20076;SDS011;12348;42.710;23.378;2022-12-07T04:01:52;28.37;;;12.17;;
20076;SDS011;12348;42.710;23.378;2022-12-07T04:04:20;27.77;;;12.97;;
20076;SDS011;12348;42.710;23.378;2022-12-07T04:06:47;33.53;;;12.30;;
20076;SDS011;12348;42.710;23.378;2022-12-07T04:09:14;29.67;;;11.00;;
20076;SDS011;12348;42.710;23.378;2022-12-07T04:11:41;30.93;;;11.50;;
20076;SDS011;12348;42.710;23.378;2022-12-07T04:14:08;25.67;;;9.67;;
20076;SDS011;12348;42.710;23.378;2022-12-07T04:16:47;26.80;;;11.43;;
20076;SDS011;12348;42.710;23.378;2022-12-07T04:19:17;32.07;;;12.77;;
20076;SDS011;12348;42.710;23.378;2022-12-07T04:21:45;26.40;;;12.40;;
20076;SDS011;12348;42.710;23.378;2022-12-07T04:24:13;30.93;;;13.37;;
20076;SDS011;12348;42.710;23.378;2022-12-07T04:26:41;26.77;;;11.60;;
20076;SDS011;12348;42.710;23.378;2022-12-07T04:29:09;27.47;;;11.77;;
20076;SDS011;12348;42.710;23.378;2022-12-07T04:31:36;26.17;;;12.00;;
20076;SDS011;12348;42.710;23.378;2022-12-07T04:34:03;30.37;;;12.40;;
20076;SDS011;12348;42.710;23.378;2022-12-07T04:36:32;29.37;;;12.00;;
20076;SDS011;12348;42.710;23.378;2022-12-07T04:38:59;34.57;;;13.50;;
20076;SDS011;12348;42.710;23.378;2022-12-07T04:41:26;32.20;;;13.03;;
20076;SDS011;12348;42.710;23.378;2022-12-07T04:43:54;32.37;;;12.83;;
20076;SDS011;12348;42.710;23.378;2022-12-07T04:46:22;33.57;;;13.20;;
20076;SDS011;12348;42.710;23.378;2022-12-07T04:48:49;26.67;;;12.97;;
20076;SDS011;12348;42.710;23.378;2022-12-07T04:51:16;42.00;;;12.13;;
20076;SDS011;12348;42.710;23.378;2022-12-07T04:53:47;29.33;;;12.17;;
20076;SDS011;12348;42.710;23.378;2022-12-07T04:56:15;24.27;;;10.37;;
20076;SDS011;12348;42.710;23.378;2022-12-07T04:58:43;30.50;;;12.37;;
20076;SDS011;12348;42.710;23.378;2022-12-07T05:01:11;31.20;;;12.10;;
20076;SDS011;12348;42.710;23.378;2022-12-07T05:03:38;24.93;;;11.97;;
20076;SDS011;12348;42.710;23.378;2022-12-07T05:06:05;23.13;;;11.50;;
20076;SDS011;12348;42.710;23.378;2022-12-07T05:08:33;28.10;;;12.40;;
20076;SDS011;12348;42.710;23.378;2022-12-07T05:11:02;39.33;;;14.73;;
20076;SDS011;12348;42.710;23.378;2022-12-07T05:13:30;36.67;;;13.77;;
20076;SDS011;12348;42.710;23.378;2022-12-07T05:15:57;28.00;;;14.17;;
20076;SDS011;12348;42.710;23.378;2022-12-07T05:18:24;26.87;;;11.80;;
20076;SDS011;12348;42.710;23.378;2022-12-07T05:20:51;30.23;;;12.47;;
20076;SDS011;12348;42.710;23.378;2022-12-07T05:23:18;38.83;;;13.47;;
20076;SDS011;12348;42.710;23.378;2022-12-07T05:25:45;31.13;;;12.87;;
20076;SDS011;12348;42.710;23.378;2022-12-07T05:28:14;36.73;;;13.37;;
20076;SDS011;12348;42.710;23.378;2022-12-07T05:30:40;28.83;;;12.37;;
20076;SDS011;12348;42.710;23.378;2022-12-07T05:33:07;29.20;;;14.30;;
20076;SDS011;12348;42.710;23.378;2022-12-07T05:35:34;29.27;;;12.90;;
20076;SDS011;12348;42.710;23.378;2022-12-07T05:38:02;40.50;;;16.47;;
20076;SDS011;12348;42.710;23.378;2022-12-07T05:40:29;28.13;;;14.00;;
20076;SDS011;12348;42.710;23.378;2022-12-07T05:42:56;27.87;;;11.93;;
20076;SDS011;12348;42.710;23.378;2022-12-07T05:45:24;30.23;;;14.07;;
20076;SDS011;12348;42.710;23.378;2022-12-07T05:47:51;32.93;;;12.87;;
20076;SDS011;12348;42.710;23.378;2022-12-07T05:50:17;34.33;;;15.00;;
20076;SDS011;12348;42.710;23.378;2022-12-07T05:52:44;27.03;;;12.13;;
20076;SDS011;12348;42.710;23.378;2022-12-07T05:55:11;21.50;;;11.33;;
20076;SDS011;12348;42.710;23.378;2022-12-07T05:57:38;31.30;;;13.03;;
20076;SDS011;12348;42.710;23.378;2022-12-07T06:00:05;21.77;;;11.77;;
20076;SDS011;12348;42.710;23.378;2022-12-07T06:02:33;32.33;;;12.83;;
20076;SDS011;12348;42.710;23.378;2022-12-07T06:05:00;41.80;;;16.30;;
20076;SDS011;12348;42.710;23.378;2022-12-07T06:07:27;29.10;;;14.40;;
20076;SDS011;12348;42.710;23.378;2022-12-07T06:09:53;36.80;;;14.93;;
20076;SDS011;12348;42.710;23.378;2022-12-07T06:12:20;35.60;;;15.63;;
20076;SDS011;12348;42.710;23.378;2022-12-07T06:15:03;37.70;;;16.60;;
20076;SDS011;12348;42.710;23.378;2022-12-07T06:17:30;46.27;;;16.97;;
20076;SDS011;12348;42.710;23.378;2022-12-07T06:19:58;34.13;;;16.30;;
20076;SDS011;12348;42.710;23.378;2022-12-07T06:22:25;49.97;;;25.03;;
20076;SDS011;12348;42.710;23.378;2022-12-07T06:24:52;39.53;;;17.17;;
20076;SDS011;12348;42.710;23.378;2022-12-07T06:27:18;45.53;;;17.83;;
20076;SDS011;12348;42.710;23.378;2022-12-07T06:29:45;39.43;;;18.73;;
20076;SDS011;12348;42.710;23.378;2022-12-07T06:32:12;45.10;;;19.40;;
20076;SDS011;12348;42.710;23.378;2022-12-07T06:34:40;44.53;;;18.73;;
20076;SDS011;12348;42.710;23.378;2022-12-07T06:37:08;46.07;;;19.80;;
20076;SDS011;12348;42.710;23.378;2022-12-07T06:39:35;42.73;;;18.33;;
20076;SDS011;12348;42.710;23.378;2022-12-07T06:42:02;47.70;;;21.93;;
20076;SDS011;12348;42.710;23.378;2022-12-07T06:44:29;51.60;;;23.10;;
20076;SDS011;12348;42.710;23.378;2022-12-07T06:46:55;43.43;;;20.10;;
20076;SDS011;12348;42.710;23.378;2022-12-07T06:49:22;51.30;;;22.03;;
20076;SDS011;12348;42.710;23.378;2022-12-07T06:51:49;57.67;;;24.87;;
20076;SDS011;12348;42.710;23.378;2022-12-07T06:54:17;45.30;;;21.10;;
20076;SDS011;12348;42.710;23.378;2022-12-07T06:56:44;48.77;;;20.87;;
20076;SDS011;12348;42.710;23.378;2022-12-07T06:59:11;47.70;;;19.97;;
20076;SDS011;12348;42.710;23.378;2022-12-07T07:01:38;41.17;;;19.57;;
20076;SDS011;12348;42.710;23.378;2022-12-07T07:04:05;41.77;;;18.17;;
20076;SDS011;12348;42.710;23.378;2022-12-07T07:06:31;46.17;;;17.33;;
20076;SDS011;12348;42.710;23.378;2022-12-07T07:08:59;40.40;;;20.23;;
20076;SDS011;12348;42.710;23.378;2022-12-07T07:11:27;47.43;;;20.73;;
20076;SDS011;12348;42.710;23.378;2022-12-07T07:13:54;35.07;;;18.67;;
20076;SDS011;12348;42.710;23.378;2022-12-07T07:16:27;49.70;;;20.87;;
20076;SDS011;12348;42.710;23.378;2022-12-07T07:18:54;51.53;;;24.07;;
20076;SDS011;12348;42.710;23.378;2022-12-07T07:21:20;38.53;;;19.43;;
20076;SDS011;12348;42.710;23.378;2022-12-07T07:23:47;37.53;;;16.93;;
20076;SDS011;12348;42.710;23.378;2022-12-07T07:26:14;35.20;;;15.87;;
20076;SDS011;12348;42.710;23.378;2022-12-07T07:28:42;39.30;;;16.87;;
20076;SDS011;12348;42.710;23.378;2022-12-07T07:31:09;49.97;;;15.93;;
20076;SDS011;12348;42.710;23.378;2022-12-07T07:33:35;34.63;;;15.10;;
20076;SDS011;12348;42.710;23.378;2022-12-07T07:36:02;32.83;;;14.90;;
20076;SDS011;12348;42.710;23.378;2022-12-07T07:38:30;27.77;;;15.03;;
20076;SDS011;12348;42.710;23.378;2022-12-07T07:40:56;39.20;;;15.27;;
20076;SDS011;12348;42.710;23.378;2022-12-07T07:43:23;39.00;;;14.93;;
20076;SDS011;12348;42.710;23.378;2022-12-07T07:45:51;24.97;;;11.90;;
20076;SDS011;12348;42.710;23.378;2022-12-07T07:48:18;39.67;;;15.40;;
20076;SDS011;12348;42.710;23.378;2022-12-07T07:50:47;31.40;;;16.67;;
20076;SDS011;12348;42.710;23.378;2022-12-07T07:53:14;37.90;;;16.90;;
20076;SDS011;12348;42.710;23.378;2022-12-07T07:55:49;37.40;;;16.03;;
20076;SDS011;12348;42.710;23.378;2022-12-07T07:58:17;33.63;;;16.63;;
20076;SDS011;12348;42.710;23.378;2022-12-07T08:00:44;29.93;;;15.17;;
20076;SDS011;12348;42.710;23.378;2022-12-07T08:03:12;36.23;;;14.80;;
20076;SDS011;12348;42.710;23.378;2022-12-07T08:05:39;33.10;;;15.27;;
20076;SDS011;12348;42.710;23.378;2022-12-07T08:08:06;22.90;;;13.30;;
20076;SDS011;12348;42.710;23.378;2022-12-07T08:10:33;26.83;;;12.97;;
20076;SDS011;12348;42.710;23.378;2022-12-07T08:13:00;28.40;;;11.47;;
20076;SDS011;12348;42.710;23.378;2022-12-07T08:15:39;26.70;;;12.80;;
20076;SDS011;12348;42.710;23.378;2022-12-07T08:18:07;32.80;;;14.57;;
20076;SDS011;12348;42.710;23.378;2022-12-07T08:20:36;30.10;;;13.80;;
20076;SDS011;12348;42.710;23.378;2022-12-07T08:23:04;30.10;;;13.90;;
20076;SDS011;12348;42.710;23.378;2022-12-07T08:25:32;38.70;;;13.30;;
20076;SDS011;12348;42.710;23.378;2022-12-07T08:27:59;36.47;;;13.53;;
20076;SDS011;12348;42.710;23.378;2022-12-07T08:30:27;28.57;;;13.57;;
20076;SDS011;12348;42.710;23.378;2022-12-07T08:32:55;30.00;;;12.93;;
20076;SDS011;12348;42.710;23.378;2022-12-07T08:35:22;29.47;;;14.27;;
20076;SDS011;12348;42.710;23.378;2022-12-07T08:37:50;27.67;;;13.57;;
20076;SDS011;12348;42.710;23.378;2022-12-07T08:40:17;26.63;;;12.70;;
20076;SDS011;12348;42.710;23.378;2022-12-07T08:42:48;26.37;;;12.90;;
20076;SDS011;12348;42.710;23.378;2022-12-07T08:45:15;29.67;;;13.87;;
20076;SDS011;12348;42.710;23.378;2022-12-07T08:47:44;29.70;;;13.57;;
20076;SDS011;12348;42.710;23.378;2022-12-07T08:50:15;31.37;;;14.73;;
20076;SDS011;12348;42.710;23.378;2022-12-07T08:52:42;31.50;;;13.00;;
20076;SDS011;12348;42.710;23.378;2022-12-07T08:55:11;30.03;;;14.13;;
20076;SDS011;12348;42.710;23.378;2022-12-07T08:57:38;30.03;;;13.33;;
20076;SDS011;12348;42.710;23.378;2022-12-07T09:00:06;33.27;;;15.70;;
20076;SDS011;12348;42.710;23.378;2022-12-07T09:02:34;30.23;;;14.43;;
20076;SDS011;12348;42.710;23.378;2022-12-07T09:05:01;34.37;;;13.67;;
20076;SDS011;12348;42.710;23.378;2022-12-07T09:07:28;34.47;;;13.83;;
20076;SDS011;12348;42.710;23.378;2022-12-07T09:09:57;31.77;;;12.37;;
20076;SDS011;12348;42.710;23.378;2022-12-07T09:12:25;24.80;;;13.27;;
20076;SDS011;12348;42.710;23.378;2022-12-07T09:14:52;27.50;;;14.37;;
20076;SDS011;12348;42.710;23.378;2022-12-07T09:17:18;26.83;;;11.67;;
20076;SDS011;12348;42.710;23.378;2022-12-07T09:19:45;28.43;;;13.27;;
20076;SDS011;12348;42.710;23.378;2022-12-07T09:22:12;34.40;;;15.13;;
20076;SDS011;12348;42.710;23.378;2022-12-07T09:24:39;45.37;;;16.33;;
20076;SDS011;12348;42.710;23.378;2022-12-07T09:27:06;34.80;;;13.90;;
20076;SDS011;12348;42.710;23.378;2022-12-07T09:29:35;34.80;;;13.47;;
20076;SDS011;12348;42.710;23.378;2022-12-07T09:32:01;23.63;;;12.93;;
20076;SDS011;12348;42.710;23.378;2022-12-07T09:34:30;33.07;;;14.23;;
20076;SDS011;12348;42.710;23.378;2022-12-07T09:36:56;31.47;;;13.13;;
20076;SDS011;12348;42.710;23.378;2022-12-07T09:39:24;33.73;;;14.63;;
20076;SDS011;12348;42.710;23.378;2022-12-07T09:41:50;27.90;;;14.00;;
20076;SDS011;12348;42.710;23.378;2022-12-07T09:44:19;33.80;;;12.67;;
20076;SDS011;12348;42.710;23.378;2022-12-07T09:46:53;32.80;;;13.53;;
20076;SDS011;12348;42.710;23.378;2022-12-07T09:49:22;32.67;;;12.93;;
20076;SDS011;12348;42.710;23.378;2022-12-07T09:51:59;30.80;;;12.50;;
20076;SDS011;12348;42.710;23.378;2022-12-07T09:54:27;34.57;;;12.73;;
20076;SDS011;12348;42.710;23.378;2022-12-07T09:56:55;26.00;;;12.73;;
20076;SDS011;12348;42.710;23.378;2022-12-07T09:59:22;32.23;;;12.83;;
20076;SDS011;12348;42.710;23.378;2022-12-07T10:01:49;31.37;;;12.07;;
20076;SDS011;12348;42.710;23.378;2022-12-07T10:04:19;26.47;;;12.80;;
20076;SDS011;12348;42.710;23.378;2022-12-07T10:06:47;26.07;;;11.60;;
20076;SDS011;12348;42.710;23.378;2022-12-07T10:09:17;27.87;;;12.97;;
20076;SDS011;12348;42.710;23.378;2022-12-07T10:11:58;30.37;;;13.23;;
20076;SDS011;12348;42.710;23.378;2022-12-07T10:14:26;28.07;;;11.30;;
20076;SDS011;12348;42.710;23.378;2022-12-07T10:16:54;30.10;;;12.03;;
20076;SDS011;12348;42.710;23.378;2022-12-07T10:19:24;31.77;;;12.50;;
20076;SDS011;12348;42.710;23.378;2022-12-07T10:21:59;27.47;;;12.73;;
20076;SDS011;12348;42.710;23.378;2022-12-07T10:24:30;28.43;;;12.10;;
20076;SDS011;12348;42.710;23.378;2022-12-07T10:26:58;31.33;;;11.30;;
20076;SDS011;12348;42.710;23.378;2022-12-07T10:29:28;23.23;;;11.20;;
20076;SDS011;12348;42.710;23.378;2022-12-07T10:31:56;26.57;;;12.10;;
20076;SDS011;12348;42.710;23.378;2022-12-07T10:34:30;29.00;;;13.83;;
20076;SDS011;12348;42.710;23.378;2022-12-07T10:37:13;23.43;;;12.50;;
20076;SDS011;12348;42.710;23.378;2022-12-07T10:39:43;23.00;;;11.20;;
20076;SDS011;12348;42.710;23.378;2022-12-07T10:42:16;27.37;;;12.57;;
20076;SDS011;12348;42.710;23.378;2022-12-07T10:44:44;23.40;;;12.03;;
20076;SDS011;12348;42.710;23.378;2022-12-07T10:47:15;27.87;;;12.13;;
20076;SDS011;12348;42.710;23.378;2022-12-07T10:50:17;27.87;;;11.80;;
20076;SDS011;12348;42.710;23.378;2022-12-07T10:53:02;34.57;;;12.93;;
20076;SDS011;12348;42.710;23.378;2022-12-07T10:55:45;24.00;;;11.13;;
20076;SDS011;12348;42.710;23.378;2022-12-07T10:58:38;33.77;;;12.53;;
20076;SDS011;12348;42.710;23.378;2022-12-07T11:01:19;25.13;;;10.73;;
20076;SDS011;12348;42.710;23.378;2022-12-07T11:06:44;17.93;;;9.47;;
20076;SDS011;12348;42.710;23.378;2022-12-07T11:09:38;17.80;;;8.17;;
20076;SDS011;12348;42.710;23.378;2022-12-07T11:12:25;23.73;;;10.07;;
20076;SDS011;12348;42.710;23.378;2022-12-07T11:15:01;14.57;;;7.47;;
20076;SDS011;12348;42.710;23.378;2022-12-07T11:17:41;16.07;;;8.00;;
20076;SDS011;12348;42.710;23.378;2022-12-07T11:20:16;26.47;;;10.67;;
20076;SDS011;12348;42.710;23.378;2022-12-07T11:22:58;21.00;;;8.17;;
20076;SDS011;12348;42.710;23.378;2022-12-07T11:25:32;15.07;;;7.23;;
20076;SDS011;12348;42.710;23.378;2022-12-07T11:28:13;23.10;;;10.73;;
20076;SDS011;12348;42.710;23.378;2022-12-07T11:30:51;23.50;;;11.53;;
20076;SDS011;12348;42.710;23.378;2022-12-07T11:33:26;17.93;;;8.13;;
20076;SDS011;12348;42.710;23.378;2022-12-07T11:35:59;17.40;;;8.20;;
20076;SDS011;12348;42.710;23.378;2022-12-07T11:38:37;17.23;;;8.33;;
20076;SDS011;12348;42.710;23.378;2022-12-07T11:41:09;18.80;;;8.20;;
20076;SDS011;12348;42.710;23.378;2022-12-07T11:43:41;21.17;;;9.07;;
20076;SDS011;12348;42.710;23.378;2022-12-07T11:46:19;26.03;;;8.47;;
20076;SDS011;12348;42.710;23.378;2022-12-07T11:48:52;23.17;;;10.13;;
20076;SDS011;12348;42.710;23.378;2022-12-07T11:51:24;21.77;;;8.77;;
20076;SDS011;12348;42.710;23.378;2022-12-07T11:53:55;16.23;;;8.67;;
20076;SDS011;12348;42.710;23.378;2022-12-07T11:56:26;19.90;;;8.20;;
20076;SDS011;12348;42.710;23.378;2022-12-07T11:58:57;18.23;;;9.20;;
20076;SDS011;12348;42.710;23.378;2022-12-07T12:01:33;18.07;;;9.40;;
20076;SDS011;12348;42.710;23.378;2022-12-07T12:04:13;20.20;;;9.30;;
20076;SDS011;12348;42.710;23.378;2022-12-07T12:06:53;17.80;;;9.00;;
20076;SDS011;12348;42.710;23.378;2022-12-07T12:09:23;23.43;;;10.27;;
20076;SDS011;12348;42.710;23.378;2022-12-07T12:12:06;23.17;;;10.00;;
20076;SDS011;12348;42.710;23.378;2022-12-07T12:14:48;22.40;;;8.77;;
20076;SDS011;12348;42.710;23.378;2022-12-07T12:17:44;19.70;;;8.50;;
20076;SDS011;12348;42.710;23.378;2022-12-07T12:20:21;22.17;;;10.37;;
20076;SDS011;12348;42.710;23.378;2022-12-07T12:22:52;19.90;;;9.50;;
20076;SDS011;12348;42.710;23.378;2022-12-07T12:25:26;24.90;;;10.60;;
20076;SDS011;12348;42.710;23.378;2022-12-07T12:27:57;24.10;;;10.33;;
20076;SDS011;12348;42.710;23.378;2022-12-07T12:30:32;18.57;;;9.27;;
20076;SDS011;12348;42.710;23.378;2022-12-07T12:33:02;21.97;;;9.33;;
20076;SDS011;12348;42.710;23.378;2022-12-07T12:35:32;18.67;;;10.03;;
20076;SDS011;12348;42.710;23.378;2022-12-07T12:41:01;26.83;;;10.33;;
20076;SDS011;12348;42.710;23.378;2022-12-07T12:43:47;19.70;;;9.20;;
20076;SDS011;12348;42.710;23.378;2022-12-07T12:49:34;21.53;;;8.63;;
20076;SDS011;12348;42.710;23.378;2022-12-07T12:58:33;19.27;;;9.23;;
20076;SDS011;12348;42.710;23.378;2022-12-07T13:04:14;21.50;;;10.30;;
20076;SDS011;12348;42.710;23.378;2022-12-07T13:06:58;19.63;;;8.73;;
20076;SDS011;12348;42.710;23.378;2022-12-07T13:09:25;24.30;;;10.83;;
20076;SDS011;12348;42.710;23.378;2022-12-07T13:11:55;26.33;;;13.93;;
20076;SDS011;12348;42.710;23.378;2022-12-07T13:23:16;29.27;;;11.80;;
20076;SDS011;12348;42.710;23.378;2022-12-07T13:25:48;23.40;;;8.87;;
20076;SDS011;12348;42.710;23.378;2022-12-07T13:28:20;15.77;;;8.07;;
20076;SDS011;12348;42.710;23.378;2022-12-07T13:31:00;23.93;;;10.30;;
20076;SDS011;12348;42.710;23.378;2022-12-07T13:33:37;30.40;;;8.33;;
20076;SDS011;12348;42.710;23.378;2022-12-07T13:36:04;20.60;;;9.67;;
20076;SDS011;12348;42.710;23.378;2022-12-07T13:38:39;25.57;;;9.10;;
20076;SDS011;12348;42.710;23.378;2022-12-07T13:41:16;19.90;;;8.60;;
20076;SDS011;12348;42.710;23.378;2022-12-07T13:43:46;26.03;;;10.27;;
20076;SDS011;12348;42.710;23.378;2022-12-07T13:46:19;27.23;;;12.40;;
20076;SDS011;12348;42.710;23.378;2022-12-07T13:48:51;31.30;;;12.97;;
20076;SDS011;12348;42.710;23.378;2022-12-07T13:51:21;23.47;;;12.00;;
20076;SDS011;12348;42.710;23.378;2022-12-07T13:53:50;23.07;;;10.83;;
20076;SDS011;12348;42.710;23.378;2022-12-07T13:56:20;24.83;;;11.13;;
20076;SDS011;12348;42.710;23.378;2022-12-07T13:58:48;26.20;;;12.43;;
20076;SDS011;12348;42.710;23.378;2022-12-07T14:01:16;28.20;;;10.70;;
20076;SDS011;12348;42.710;23.378;2022-12-07T14:03:44;24.27;;;12.03;;
20076;SDS011;12348;42.710;23.378;2022-12-07T14:06:19;23.57;;;12.10;;
20076;SDS011;12348;42.710;23.378;2022-12-07T14:09:05;22.73;;;12.63;;
20076;SDS011;12348;42.710;23.378;2022-12-07T14:11:33;29.17;;;11.43;;
20076;SDS011;12348;42.710;23.378;2022-12-07T14:14:00;21.30;;;11.00;;
20076;SDS011;12348;42.710;23.378;2022-12-07T14:16:31;19.53;;;9.90;;
20076;SDS011;12348;42.710;23.378;2022-12-07T14:19:02;27.17;;;11.80;;
20076;SDS011;12348;42.710;23.378;2022-12-07T14:21:30;18.67;;;9.10;;
20076;SDS011;12348;42.710;23.378;2022-12-07T14:24:02;19.50;;;9.23;;
20076;SDS011;12348;42.710;23.378;2022-12-07T14:26:36;24.67;;;9.30;;
20076;SDS011;12348;42.710;23.378;2022-12-07T14:29:20;20.67;;;10.33;;
20076;SDS011;12348;42.710;23.378;2022-12-07T14:31:48;19.43;;;9.10;;
20076;SDS011;12348;42.710;23.378;2022-12-07T14:34:19;18.57;;;9.83;;
20076;SDS011;12348;42.710;23.378;2022-12-07T14:36:46;18.53;;;8.97;;
20076;SDS011;12348;42.710;23.378;2022-12-07T14:39:13;19.00;;;9.17;;
20076;SDS011;12348;42.710;23.378;2022-12-07T14:41:39;31.33;;;11.77;;
20076;SDS011;12348;42.710;23.378;2022-12-07T14:44:18;21.93;;;10.10;;
20076;SDS011;12348;42.710;23.378;2022-12-07T14:46:46;23.80;;;10.93;;
20076;SDS011;12348;42.710;23.378;2022-12-07T14:49:14;26.73;;;10.70;;
20076;SDS011;12348;42.710;23.378;2022-12-07T14:51:42;26.50;;;9.80;;
20076;SDS011;12348;42.710;23.378;2022-12-07T14:54:13;28.63;;;13.70;;
20076;SDS011;12348;42.710;23.378;2022-12-07T14:56:43;23.37;;;11.60;;
20076;SDS011;12348;42.710;23.378;2022-12-07T14:59:11;26.13;;;14.10;;